sensor_id;sensor_type;location;lat;lon;timestamp;noise_LAeq;noise_LA_min;noise_LA_max;noise_LA01;noise_LA95
74531;Laerm;63010;55.668;37.878;2022-11-15T00:00:46;59.53;49.95;71.07;;
74531;Laerm;63010;55.668;37.878;2022-11-15T00:03:16;56.36;46.95;69.14;;
74531;Laerm;63010;55.668;37.878;2022-11-15T00:05:42;55.95;46.68;64.98;;
74531;Laerm;63010;55.668;37.878;2022-11-15T00:08:09;55.18;47.57;65.38;;
74531;Laerm;63010;55.668;37.878;2022-11-15T00:10:34;55.59;45.40;67.01;;
74531;Laerm;63010;55.668;37.878;2022-11-15T00:13:04;55.80;45.87;64.15;;
74531;Laerm;63010;55.668;37.878;2022-11-15T00:15:30;58.01;48.74;71.07;;
74531;Laerm;63010;55.668;37.878;2022-11-15T00:17:55;57.64;49.58;70.96;;
74531;Laerm;63010;55.668;37.878;2022-11-15T00:20:21;57.30;47.61;65.06;;
74531;Laerm;63010;55.668;37.878;2022-11-15T00:22:46;57.10;49.74;63.03;;
74531;Laerm;63010;55.668;37.878;2022-11-15T00:25:12;59.16;47.81;70.70;;
74531;Laerm;63010;55.668;37.878;2022-11-15T00:27:38;56.58;48.04;66.14;;
74531;Laerm;63010;55.668;37.878;2022-11-15T00:30:03;58.65;46.27;71.11;;
74531;Laerm;63010;55.668;37.878;2022-11-15T00:32:31;57.96;47.78;66.93;;
74531;Laerm;63010;55.668;37.878;2022-11-15T00:34:57;57.81;46.75;72.97;;
74531;Laerm;63010;55.668;37.878;2022-11-15T00:37:23;54.89;45.42;65.29;;
74531;Laerm;63010;55.668;37.878;2022-11-15T00:39:48;55.58;48.23;62.54;;
74531;Laerm;63010;55.668;37.878;2022-11-15T00:42:14;58.64;47.34;70.16;;
74531;Laerm;63010;55.668;37.878;2022-11-15T00:44:40;54.62;45.97;64.71;;
74531;Laerm;63010;55.668;37.878;2022-11-15T00:47:05;57.08;48.81;68.60;;
74531;Laerm;63010;55.668;37.878;2022-11-15T00:49:31;57.63;46.43;70.25;;
74531;Laerm;63010;55.668;37.878;2022-11-15T00:51:56;57.82;47.42;68.78;;
74531;Laerm;63010;55.668;37.878;2022-11-15T00:54:22;55.76;47.82;65.77;;
74531;Laerm;63010;55.668;37.878;2022-11-15T00:56:47;56.32;49.10;64.74;;
74531;Laerm;63010;55.668;37.878;2022-11-15T00:59:13;56.63;47.77;69.40;;
74531;Laerm;63010;55.668;37.878;2022-11-15T01:01:39;57.67;48.53;69.39;;
74531;Laerm;63010;55.668;37.878;2022-11-15T01:04:04;56.91;47.91;66.19;;
74531;Laerm;63010;55.668;37.878;2022-11-15T01:06:30;57.38;46.12;67.08;;
74531;Laerm;63010;55.668;37.878;2022-11-15T01:08:55;55.62;45.22;62.26;;
74531;Laerm;63010;55.668;37.878;2022-11-15T01:11:21;57.93;48.84;69.26;;
74531;Laerm;63010;55.668;37.878;2022-11-15T01:13:46;55.25;47.38;61.01;;
74531;Laerm;63010;55.668;37.878;2022-11-15T01:16:17;56.94;47.07;66.23;;
74531;Laerm;63010;55.668;37.878;2022-11-15T01:18:44;56.78;46.11;71.87;;
74531;Laerm;63010;55.668;37.878;2022-11-15T01:21:12;56.81;46.07;69.59;;
74531;Laerm;63010;55.668;37.878;2022-11-15T01:23:39;56.82;49.14;69.13;;
74531;Laerm;63010;55.668;37.878;2022-11-15T01:26:06;56.84;47.17;64.52;;
74531;Laerm;63010;55.668;37.878;2022-11-15T01:28:34;58.28;48.66;65.54;;
74531;Laerm;63010;55.668;37.878;2022-11-15T01:31:02;56.39;48.44;67.88;;
74531;Laerm;63010;55.668;37.878;2022-11-15T01:33:29;55.39;48.84;61.53;;
74531;Laerm;63010;55.668;37.878;2022-11-15T01:35:55;56.97;46.70;66.16;;
74531;Laerm;63010;55.668;37.878;2022-11-15T01:38:21;58.08;49.77;66.39;;
74531;Laerm;63010;55.668;37.878;2022-11-15T01:40:48;57.11;50.32;64.95;;
74531;Laerm;63010;55.668;37.878;2022-11-15T01:43:25;58.64;49.82;68.78;;
74531;Laerm;63010;55.668;37.878;2022-11-15T01:45:56;57.51;49.01;68.36;;
74531;Laerm;63010;55.668;37.878;2022-11-15T01:48:26;58.84;47.73;71.72;;
74531;Laerm;63010;55.668;37.878;2022-11-15T01:50:55;58.54;50.19;66.55;;
74531;Laerm;63010;55.668;37.878;2022-11-15T01:53:24;60.02;50.80;72.26;;
74531;Laerm;63010;55.668;37.878;2022-11-15T01:55:50;59.79;53.88;68.26;;
74531;Laerm;63010;55.668;37.878;2022-11-15T01:58:15;58.24;50.52;64.93;;
74531;Laerm;63010;55.668;37.878;2022-11-15T02:00:41;59.28;52.39;66.26;;
74531;Laerm;63010;55.668;37.878;2022-11-15T02:03:07;58.54;48.75;69.14;;
74531;Laerm;63010;55.668;37.878;2022-11-15T02:05:33;58.31;50.79;65.75;;
74531;Laerm;63010;55.668;37.878;2022-11-15T02:08:00;59.16;52.62;64.85;;
74531;Laerm;63010;55.668;37.878;2022-11-15T02:10:27;59.13;52.21;69.91;;
74531;Laerm;63010;55.668;37.878;2022-11-15T02:12:54;59.24;51.26;66.65;;
74531;Laerm;63010;55.668;37.878;2022-11-15T02:15:24;59.64;53.17;67.03;;
74531;Laerm;63010;55.668;37.878;2022-11-15T02:18:08;59.52;53.51;67.86;;
74531;Laerm;63010;55.668;37.878;2022-11-15T02:29:10;60.43;52.86;68.71;;
74531;Laerm;63010;55.668;37.878;2022-11-15T02:31:48;60.32;53.63;66.99;;
74531;Laerm;63010;55.668;37.878;2022-11-15T02:37:15;60.83;55.07;67.70;;
74531;Laerm;63010;55.668;37.878;2022-11-15T02:39:50;60.88;53.84;72.13;;
74531;Laerm;63010;55.668;37.878;2022-11-15T02:42:41;59.66;55.10;66.91;;
74531;Laerm;63010;55.668;37.878;2022-11-15T02:45:37;59.16;52.78;64.93;;
74531;Laerm;63010;55.668;37.878;2022-11-15T02:48:06;60.58;54.62;68.07;;
74531;Laerm;63010;55.668;37.878;2022-11-15T02:50:33;60.02;51.25;67.77;;
74531;Laerm;63010;55.668;37.878;2022-11-15T02:52:59;60.04;54.17;69.15;;
74531;Laerm;63010;55.668;37.878;2022-11-15T03:03:47;62.04;56.96;66.34;;
74531;Laerm;63010;55.668;37.878;2022-11-15T03:09:02;61.84;55.10;66.06;;
74531;Laerm;63010;55.668;37.878;2022-11-15T03:11:29;61.53;57.25;65.29;;
74531;Laerm;63010;55.668;37.878;2022-11-15T03:16:44;62.26;57.60;67.02;;
74531;Laerm;63010;55.668;37.878;2022-11-15T03:21:45;62.31;58.04;68.41;;
74531;Laerm;63010;55.668;37.878;2022-11-15T03:24:14;62.58;57.35;67.09;;
74531;Laerm;63010;55.668;37.878;2022-11-15T03:26:43;62.36;58.10;67.20;;
74531;Laerm;63010;55.668;37.878;2022-11-15T03:29:15;62.97;58.27;70.33;;
74531;Laerm;63010;55.668;37.878;2022-11-15T03:31:46;62.55;58.28;68.31;;
74531;Laerm;63010;55.668;37.878;2022-11-15T03:34:20;62.15;57.42;69.09;;
74531;Laerm;63010;55.668;37.878;2022-11-15T03:36:49;63.51;57.22;73.12;;
74531;Laerm;63010;55.668;37.878;2022-11-15T03:39:15;63.61;58.55;75.33;;
74531;Laerm;63010;55.668;37.878;2022-11-15T03:44:33;61.62;56.97;67.10;;
74531;Laerm;63010;55.668;37.878;2022-11-15T03:47:12;59.39;53.87;65.26;;
74531;Laerm;63010;55.668;37.878;2022-11-15T03:49:45;58.17;53.73;64.33;;
74531;Laerm;63010;55.668;37.878;2022-11-15T03:52:12;60.36;54.04;69.84;;
74531;Laerm;63010;55.668;37.878;2022-11-15T03:54:54;58.92;53.46;64.81;;
74531;Laerm;63010;55.668;37.878;2022-11-15T03:57:20;59.39;53.05;65.89;;
74531;Laerm;63010;55.668;37.878;2022-11-15T03:59:46;58.02;53.22;66.63;;
74531;Laerm;63010;55.668;37.878;2022-11-15T04:02:13;59.02;53.33;65.88;;
74531;Laerm;63010;55.668;37.878;2022-11-15T04:04:39;59.56;54.01;67.50;;
74531;Laerm;63010;55.668;37.878;2022-11-15T04:07:05;59.96;54.92;72.52;;
74531;Laerm;63010;55.668;37.878;2022-11-15T04:09:30;58.69;53.39;69.10;;
74531;Laerm;63010;55.668;37.878;2022-11-15T04:11:56;59.14;53.98;69.78;;
74531;Laerm;63010;55.668;37.878;2022-11-15T04:14:21;58.55;53.98;63.99;;
74531;Laerm;63010;55.668;37.878;2022-11-15T04:16:47;59.80;53.96;70.83;;
74531;Laerm;63010;55.668;37.878;2022-11-15T04:19:12;58.30;53.13;72.51;;
74531;Laerm;63010;55.668;37.878;2022-11-15T04:21:56;59.51;51.61;67.25;;
74531;Laerm;63010;55.668;37.878;2022-11-15T04:24:41;57.75;52.00;66.96;;
74531;Laerm;63010;55.668;37.878;2022-11-15T04:27:06;59.02;53.91;67.58;;
74531;Laerm;63010;55.668;37.878;2022-11-15T04:29:32;57.62;53.15;62.87;;
74531;Laerm;63010;55.668;37.878;2022-11-15T04:32:05;58.55;53.76;65.98;;
74531;Laerm;63010;55.668;37.878;2022-11-15T04:34:31;58.68;53.63;67.04;;
74531;Laerm;63010;55.668;37.878;2022-11-15T04:36:57;58.47;53.09;63.46;;
74531;Laerm;63010;55.668;37.878;2022-11-15T04:39:41;59.62;53.58;72.84;;
74531;Laerm;63010;55.668;37.878;2022-11-15T04:42:08;60.51;54.89;73.63;;
74531;Laerm;63010;55.668;37.878;2022-11-15T04:44:33;59.00;53.55;67.11;;
74531;Laerm;63010;55.668;37.878;2022-11-15T04:46:59;60.22;53.31;74.04;;
74531;Laerm;63010;55.668;37.878;2022-11-15T04:49:25;59.56;54.15;69.04;;
74531;Laerm;63010;55.668;37.878;2022-11-15T04:51:50;60.82;53.55;70.46;;
74531;Laerm;63010;55.668;37.878;2022-11-15T04:54:16;59.21;52.59;68.97;;
74531;Laerm;63010;55.668;37.878;2022-11-15T04:56:42;59.90;55.03;70.55;;
74531;Laerm;63010;55.668;37.878;2022-11-15T04:59:07;58.14;52.09;63.95;;
74531;Laerm;63010;55.668;37.878;2022-11-15T05:01:33;59.79;55.07;68.70;;
74531;Laerm;63010;55.668;37.878;2022-11-15T05:03:58;60.74;55.21;67.03;;
74531;Laerm;63010;55.668;37.878;2022-11-15T05:06:43;58.75;54.66;66.98;;
74531;Laerm;63010;55.668;37.878;2022-11-15T05:09:08;59.97;54.28;71.57;;
74531;Laerm;63010;55.668;37.878;2022-11-15T05:11:34;60.31;55.12;67.03;;
74531;Laerm;63010;55.668;37.878;2022-11-15T05:13:59;59.83;54.41;65.07;;
74531;Laerm;63010;55.668;37.878;2022-11-15T05:16:25;59.68;54.91;65.80;;
74531;Laerm;63010;55.668;37.878;2022-11-15T05:18:52;58.52;54.19;65.23;;
74531;Laerm;63010;55.668;37.878;2022-11-15T05:21:19;59.39;55.21;66.23;;
74531;Laerm;63010;55.668;37.878;2022-11-15T05:23:45;61.01;56.03;71.72;;
74531;Laerm;63010;55.668;37.878;2022-11-15T05:26:12;59.76;54.32;65.29;;
74531;Laerm;63010;55.668;37.878;2022-11-15T05:28:37;62.36;55.70;78.74;;
74531;Laerm;63010;55.668;37.878;2022-11-15T05:31:06;59.80;55.01;64.65;;
74531;Laerm;63010;55.668;37.878;2022-11-15T05:33:32;59.73;54.68;70.72;;
74531;Laerm;63010;55.668;37.878;2022-11-15T05:36:31;61.75;55.13;76.83;;
74531;Laerm;63010;55.668;37.878;2022-11-15T05:38:57;59.96;54.85;67.10;;
74531;Laerm;63010;55.668;37.878;2022-11-15T05:41:33;63.58;54.18;77.59;;
74531;Laerm;63010;55.668;37.878;2022-11-15T05:44:02;61.24;55.53;74.38;;
74531;Laerm;63010;55.668;37.878;2022-11-15T05:46:30;58.97;54.52;64.71;;
74531;Laerm;63010;55.668;37.878;2022-11-15T05:48:56;61.20;55.08;71.55;;
74531;Laerm;63010;55.668;37.878;2022-11-15T05:51:22;59.55;54.93;65.39;;
74531;Laerm;63010;55.668;37.878;2022-11-15T05:53:49;59.37;54.63;66.13;;
74531;Laerm;63010;55.668;37.878;2022-11-15T05:56:15;59.84;54.35;67.39;;
74531;Laerm;63010;55.668;37.878;2022-11-15T05:58:41;59.11;54.09;65.77;;
74531;Laerm;63010;55.668;37.878;2022-11-15T06:01:07;60.14;55.91;79.18;;
74531;Laerm;63010;55.668;37.878;2022-11-15T06:03:33;59.04;54.39;68.88;;
74531;Laerm;63010;55.668;37.878;2022-11-15T06:05:58;59.67;53.90;70.23;;
74531;Laerm;63010;55.668;37.878;2022-11-15T06:08:24;61.02;54.26;76.90;;
74531;Laerm;63010;55.668;37.878;2022-11-15T06:10:49;60.22;54.52;71.85;;
74531;Laerm;63010;55.668;37.878;2022-11-15T06:13:15;59.40;54.60;72.28;;
74531;Laerm;63010;55.668;37.878;2022-11-15T06:15:40;60.31;54.93;68.49;;
74531;Laerm;63010;55.668;37.878;2022-11-15T06:18:06;60.22;54.78;69.62;;
74531;Laerm;63010;55.668;37.878;2022-11-15T06:20:31;61.34;53.90;77.24;;
74531;Laerm;63010;55.668;37.878;2022-11-15T06:23:03;59.71;55.11;65.96;;
74531;Laerm;63010;55.668;37.878;2022-11-15T06:25:29;63.23;55.57;73.19;;
74531;Laerm;63010;55.668;37.878;2022-11-15T06:27:56;59.90;54.11;69.65;;
74531;Laerm;63010;55.668;37.878;2022-11-15T06:30:23;58.46;51.95;67.33;;
74531;Laerm;63010;55.668;37.878;2022-11-15T06:32:49;59.11;53.91;68.30;;
74531;Laerm;63010;55.668;37.878;2022-11-15T06:35:15;58.22;53.45;63.18;;
74531;Laerm;63010;55.668;37.878;2022-11-15T06:37:41;59.28;54.23;69.11;;
74531;Laerm;63010;55.668;37.878;2022-11-15T06:40:09;61.10;54.89;72.24;;
74531;Laerm;63010;55.668;37.878;2022-11-15T06:42:35;60.37;54.69;67.91;;
74531;Laerm;63010;55.668;37.878;2022-11-15T06:45:01;59.75;52.25;67.79;;
74531;Laerm;63010;55.668;37.878;2022-11-15T06:47:27;59.64;54.93;66.52;;
74531;Laerm;63010;55.668;37.878;2022-11-15T06:49:52;60.91;53.75;72.48;;
74531;Laerm;63010;55.668;37.878;2022-11-15T06:52:18;58.97;54.24;68.06;;
74531;Laerm;63010;55.668;37.878;2022-11-15T06:54:45;59.26;53.68;67.28;;
74531;Laerm;63010;55.668;37.878;2022-11-15T06:57:10;59.73;53.48;68.57;;
74531;Laerm;63010;55.668;37.878;2022-11-15T06:59:36;59.76;52.32;65.77;;
74531;Laerm;63010;55.668;37.878;2022-11-15T07:02:02;59.49;54.00;65.93;;
74531;Laerm;63010;55.668;37.878;2022-11-15T07:04:29;61.55;54.54;73.21;;
74531;Laerm;63010;55.668;37.878;2022-11-15T07:06:54;58.93;52.38;66.49;;
74531;Laerm;63010;55.668;37.878;2022-11-15T07:09:20;59.56;53.74;69.96;;
74531;Laerm;63010;55.668;37.878;2022-11-15T07:11:45;58.27;53.75;64.06;;
74531;Laerm;63010;55.668;37.878;2022-11-15T07:14:11;60.00;54.50;68.72;;
74531;Laerm;63010;55.668;37.878;2022-11-15T07:16:37;59.16;54.04;68.46;;
74531;Laerm;63010;55.668;37.878;2022-11-15T07:19:03;60.32;55.50;66.22;;
74531;Laerm;63010;55.668;37.878;2022-11-15T07:21:28;63.07;54.24;76.76;;
74531;Laerm;63010;55.668;37.878;2022-11-15T07:23:54;58.85;51.98;68.08;;
74531;Laerm;63010;55.668;37.878;2022-11-15T07:26:20;60.06;54.96;68.98;;
74531;Laerm;63010;55.668;37.878;2022-11-15T07:28:45;58.87;53.47;67.41;;
74531;Laerm;63010;55.668;37.878;2022-11-15T07:31:11;61.77;55.56;68.22;;
74531;Laerm;63010;55.668;37.878;2022-11-15T07:33:37;60.36;55.49;74.36;;
74531;Laerm;63010;55.668;37.878;2022-11-15T07:36:04;62.37;53.63;75.27;;
74531;Laerm;63010;55.668;37.878;2022-11-15T07:38:31;61.97;55.33;74.53;;
74531;Laerm;63010;55.668;37.878;2022-11-15T07:40:58;59.05;52.91;69.47;;
74531;Laerm;63010;55.668;37.878;2022-11-15T07:43:24;59.08;53.94;66.77;;
74531;Laerm;63010;55.668;37.878;2022-11-15T07:45:50;58.87;53.56;64.33;;
74531;Laerm;63010;55.668;37.878;2022-11-15T07:48:15;59.27;53.50;71.28;;
74531;Laerm;63010;55.668;37.878;2022-11-15T07:50:42;59.12;54.15;71.16;;
74531;Laerm;63010;55.668;37.878;2022-11-15T07:53:08;59.81;54.57;69.72;;
74531;Laerm;63010;55.668;37.878;2022-11-15T07:55:34;60.44;55.16;74.93;;
74531;Laerm;63010;55.668;37.878;2022-11-15T07:58:04;59.42;54.50;67.02;;
74531;Laerm;63010;55.668;37.878;2022-11-15T08:00:31;61.18;54.94;69.68;;
74531;Laerm;63010;55.668;37.878;2022-11-15T08:03:13;60.39;55.17;70.15;;
74531;Laerm;63010;55.668;37.878;2022-11-15T08:05:39;59.93;56.19;65.80;;
74531;Laerm;63010;55.668;37.878;2022-11-15T08:08:06;60.41;54.89;67.14;;
74531;Laerm;63010;55.668;37.878;2022-11-15T08:10:32;58.50;53.96;71.73;;
74531;Laerm;63010;55.668;37.878;2022-11-15T08:13:03;59.68;55.32;69.01;;
74531;Laerm;63010;55.668;37.878;2022-11-15T08:15:29;59.70;55.50;65.51;;
74531;Laerm;63010;55.668;37.878;2022-11-15T08:18:01;60.31;56.17;67.65;;
74531;Laerm;63010;55.668;37.878;2022-11-15T08:20:28;60.93;55.99;67.44;;
74531;Laerm;63010;55.668;37.878;2022-11-15T08:22:58;59.31;54.21;65.29;;
74531;Laerm;63010;55.668;37.878;2022-11-15T08:25:24;61.09;55.92;70.40;;
74531;Laerm;63010;55.668;37.878;2022-11-15T08:27:56;61.11;55.21;67.98;;
74531;Laerm;63010;55.668;37.878;2022-11-15T08:30:22;60.25;56.56;68.12;;
74531;Laerm;63010;55.668;37.878;2022-11-15T08:32:49;60.97;55.14;69.79;;
74531;Laerm;63010;55.668;37.878;2022-11-15T08:35:15;61.27;56.73;66.85;;
74531;Laerm;63010;55.668;37.878;2022-11-15T08:37:41;61.53;56.21;70.08;;
74531;Laerm;63010;55.668;37.878;2022-11-15T08:40:07;60.11;54.68;67.83;;
74531;Laerm;63010;55.668;37.878;2022-11-15T08:42:33;59.70;54.14;68.47;;
74531;Laerm;63010;55.668;37.878;2022-11-15T08:44:59;59.11;54.88;65.86;;
74531;Laerm;63010;55.668;37.878;2022-11-15T08:47:24;58.87;53.81;65.71;;
74531;Laerm;63010;55.668;37.878;2022-11-15T08:49:50;59.72;54.71;66.76;;
74531;Laerm;63010;55.668;37.878;2022-11-15T08:52:15;61.16;54.73;71.30;;
74531;Laerm;63010;55.668;37.878;2022-11-15T08:54:41;63.43;56.48;75.77;;
74531;Laerm;63010;55.668;37.878;2022-11-15T08:57:07;60.93;54.86;71.16;;
74531;Laerm;63010;55.668;37.878;2022-11-15T08:59:37;61.49;54.46;72.61;;
74531;Laerm;63010;55.668;37.878;2022-11-15T09:02:04;59.57;54.85;68.67;;
74531;Laerm;63010;55.668;37.878;2022-11-15T09:04:29;60.41;55.06;71.30;;
74531;Laerm;63010;55.668;37.878;2022-11-15T09:06:55;59.99;55.61;64.30;;
74531;Laerm;63010;55.668;37.878;2022-11-15T09:09:21;60.75;55.85;68.61;;
74531;Laerm;63010;55.668;37.878;2022-11-15T09:11:46;60.91;54.94;70.24;;
74531;Laerm;63010;55.668;37.878;2022-11-15T09:14:13;58.69;53.87;65.32;;
74531;Laerm;63010;55.668;37.878;2022-11-15T09:16:38;59.50;53.88;66.95;;
74531;Laerm;63010;55.668;37.878;2022-11-15T09:19:04;59.78;53.12;70.38;;
74531;Laerm;63010;55.668;37.878;2022-11-15T09:21:30;59.83;55.60;65.92;;
74531;Laerm;63010;55.668;37.878;2022-11-15T09:23:56;60.58;55.64;70.14;;
74531;Laerm;63010;55.668;37.878;2022-11-15T09:26:21;60.81;55.78;69.40;;
74531;Laerm;63010;55.668;37.878;2022-11-15T09:28:47;62.43;56.29;75.44;;
74531;Laerm;63010;55.668;37.878;2022-11-15T09:31:13;60.56;55.39;72.66;;
74531;Laerm;63010;55.668;37.878;2022-11-15T09:33:39;62.35;56.47;76.19;;
74531;Laerm;63010;55.668;37.878;2022-11-15T09:36:07;60.71;56.63;70.34;;
74531;Laerm;63010;55.668;37.878;2022-11-15T09:38:33;61.25;56.75;70.08;;
74531;Laerm;63010;55.668;37.878;2022-11-15T09:49:28;59.71;54.31;71.14;;
74531;Laerm;63010;55.668;37.878;2022-11-15T09:51:54;59.76;54.78;66.73;;
74531;Laerm;63010;55.668;37.878;2022-11-15T09:54:26;59.83;54.61;66.76;;
74531;Laerm;63010;55.668;37.878;2022-11-15T09:56:56;60.14;54.06;71.18;;
74531;Laerm;63010;55.668;37.878;2022-11-15T10:02:12;61.08;56.12;75.20;;
74531;Laerm;63010;55.668;37.878;2022-11-15T10:04:39;60.25;56.03;65.06;;
74531;Laerm;63010;55.668;37.878;2022-11-15T10:09:49;59.97;55.67;67.59;;
74531;Laerm;63010;55.668;37.878;2022-11-15T10:12:17;59.78;54.92;65.81;;
74531;Laerm;63010;55.668;37.878;2022-11-15T10:14:43;60.78;55.38;67.21;;
74531;Laerm;63010;55.668;37.878;2022-11-15T10:22:28;60.56;55.85;69.42;;
74531;Laerm;63010;55.668;37.878;2022-11-15T10:27:29;61.20;55.69;69.78;;
74531;Laerm;63010;55.668;37.878;2022-11-15T10:29:54;59.65;54.18;67.01;;
74531;Laerm;63010;55.668;37.878;2022-11-15T10:32:21;59.04;54.78;65.02;;
74531;Laerm;63010;55.668;37.878;2022-11-15T10:34:48;60.01;55.40;65.89;;
74531;Laerm;63010;55.668;37.878;2022-11-15T10:37:14;60.31;55.00;68.88;;
74531;Laerm;63010;55.668;37.878;2022-11-15T10:39:40;60.14;54.78;68.10;;
74531;Laerm;63010;55.668;37.878;2022-11-15T10:42:38;60.50;55.30;65.77;;
74531;Laerm;63010;55.668;37.878;2022-11-15T10:45:23;61.42;56.58;65.63;;
74531;Laerm;63010;55.668;37.878;2022-11-15T10:47:48;63.84;59.64;73.13;;
74531;Laerm;63010;55.668;37.878;2022-11-15T10:50:29;63.45;59.42;71.46;;
74531;Laerm;63010;55.668;37.878;2022-11-15T10:52:55;62.47;57.02;68.06;;
74531;Laerm;63010;55.668;37.878;2022-11-15T10:55:25;63.46;58.56;73.39;;
74531;Laerm;63010;55.668;37.878;2022-11-15T10:58:02;62.88;59.26;70.04;;
74531;Laerm;63010;55.668;37.878;2022-11-15T11:00:32;63.07;58.93;67.22;;
74531;Laerm;63010;55.668;37.878;2022-11-15T11:03:01;63.20;58.60;69.38;;
74531;Laerm;63010;55.668;37.878;2022-11-15T11:05:36;62.83;57.66;70.85;;
74531;Laerm;63010;55.668;37.878;2022-11-15T11:08:23;62.84;57.93;68.31;;
74531;Laerm;63010;55.668;37.878;2022-11-15T11:10:57;63.03;58.46;77.34;;
74531;Laerm;63010;55.668;37.878;2022-11-15T11:13:31;62.53;57.95;69.66;;
74531;Laerm;63010;55.668;37.878;2022-11-15T11:21:14;63.00;57.68;72.86;;
74531;Laerm;63010;55.668;37.878;2022-11-15T11:24:18;61.08;56.45;71.49;;
74531;Laerm;63010;55.668;37.878;2022-11-15T11:29:38;61.00;55.77;76.80;;
74531;Laerm;63010;55.668;37.878;2022-11-15T11:38:01;62.99;57.48;72.56;;
74531;Laerm;63010;55.668;37.878;2022-11-15T11:40:49;61.21;56.20;70.74;;
74531;Laerm;63010;55.668;37.878;2022-11-15T11:48:59;60.49;56.58;67.38;;
74531;Laerm;63010;55.668;37.878;2022-11-15T11:51:33;60.41;56.21;68.56;;
74531;Laerm;63010;55.668;37.878;2022-11-15T11:54:21;60.34;54.73;73.03;;
74531;Laerm;63010;55.668;37.878;2022-11-15T11:56:49;61.41;56.27;69.93;;
74531;Laerm;63010;55.668;37.878;2022-11-15T11:59:39;62.46;54.98;71.68;;
74531;Laerm;63010;55.668;37.878;2022-11-15T12:02:19;60.59;54.18;70.00;;
74531;Laerm;63010;55.668;37.878;2022-11-15T12:04:51;60.35;55.43;73.29;;
74531;Laerm;63010;55.668;37.878;2022-11-15T12:07:24;60.01;53.74;68.11;;
74531;Laerm;63010;55.668;37.878;2022-11-15T12:12:39;58.68;53.83;64.46;;
74531;Laerm;63010;55.668;37.878;2022-11-15T12:15:22;59.50;55.13;67.42;;
74531;Laerm;63010;55.668;37.878;2022-11-15T12:17:49;60.75;55.30;69.93;;
74531;Laerm;63010;55.668;37.878;2022-11-15T12:20:21;60.54;56.16;67.04;;
74531;Laerm;63010;55.668;37.878;2022-11-15T12:23:23;59.98;54.68;64.74;;
74531;Laerm;63010;55.668;37.878;2022-11-15T12:25:52;60.24;55.51;72.73;;
74531;Laerm;63010;55.668;37.878;2022-11-15T12:31:23;60.99;53.83;74.67;;
74531;Laerm;63010;55.668;37.878;2022-11-15T12:33:55;59.66;53.54;65.85;;
74531;Laerm;63010;55.668;37.878;2022-11-15T12:38:54;59.63;54.16;66.86;;
74531;Laerm;63010;55.668;37.878;2022-11-15T12:41:20;61.51;57.08;74.32;;
74531;Laerm;63010;55.668;37.878;2022-11-15T12:43:47;61.05;55.57;70.96;;
74531;Laerm;63010;55.668;37.878;2022-11-15T12:46:19;60.62;55.55;69.87;;
74531;Laerm;63010;55.668;37.878;2022-11-15T12:48:53;59.97;55.06;65.28;;
74531;Laerm;63010;55.668;37.878;2022-11-15T12:51:22;59.99;55.92;68.34;;
74531;Laerm;63010;55.668;37.878;2022-11-15T12:53:48;59.25;54.14;66.10;;
74531;Laerm;63010;55.668;37.878;2022-11-15T13:01:10;59.65;53.00;69.82;;
74531;Laerm;63010;55.668;37.878;2022-11-15T13:06:50;59.14;54.31;75.56;;
74531;Laerm;63010;55.668;37.878;2022-11-15T13:12:10;60.03;53.11;72.73;;
74531;Laerm;63010;55.668;37.878;2022-11-15T13:14:47;59.08;53.42;65.77;;
74531;Laerm;63010;55.668;37.878;2022-11-15T13:19:47;58.49;51.91;65.40;;
74531;Laerm;63010;55.668;37.878;2022-11-15T13:22:14;58.64;54.70;66.79;;
74531;Laerm;63010;55.668;37.878;2022-11-15T13:25:00;58.41;52.56;69.32;;
74531;Laerm;63010;55.668;37.878;2022-11-15T13:27:26;60.80;55.07;72.63;;
74531;Laerm;63010;55.668;37.878;2022-11-15T13:29:52;59.43;53.89;72.10;;
74531;Laerm;63010;55.668;37.878;2022-11-15T13:32:18;61.28;53.89;73.60;;
74531;Laerm;63010;55.668;37.878;2022-11-15T13:34:49;57.79;53.41;63.79;;
74531;Laerm;63010;55.668;37.878;2022-11-15T13:37:29;58.79;53.89;64.89;;
74531;Laerm;63010;55.668;37.878;2022-11-15T13:40:10;57.87;53.43;65.74;;
74531;Laerm;63010;55.668;37.878;2022-11-15T13:42:42;59.77;53.65;68.37;;
74531;Laerm;63010;55.668;37.878;2022-11-15T13:45:13;58.05;52.41;71.52;;
74531;Laerm;63010;55.668;37.878;2022-11-15T13:47:40;60.44;54.68;73.90;;
74531;Laerm;63010;55.668;37.878;2022-11-15T13:50:06;59.52;54.69;70.86;;
74531;Laerm;63010;55.668;37.878;2022-11-15T13:52:35;58.84;53.69;70.64;;
74531;Laerm;63010;55.668;37.878;2022-11-15T13:57:37;59.19;54.89;76.74;;
74531;Laerm;63010;55.668;37.878;2022-11-15T14:02:50;59.47;55.49;65.75;;
74531;Laerm;63010;55.668;37.878;2022-11-15T14:05:18;59.11;53.85;67.83;;
74531;Laerm;63010;55.668;37.878;2022-11-15T14:10:31;59.06;54.50;66.06;;
74531;Laerm;63010;55.668;37.878;2022-11-15T14:12:57;59.63;54.38;65.82;;
74531;Laerm;63010;55.668;37.878;2022-11-15T14:15:35;59.12;54.15;70.20;;
74531;Laerm;63010;55.668;37.878;2022-11-15T14:18:01;58.99;52.95;66.08;;
74531;Laerm;63010;55.668;37.878;2022-11-15T14:20:37;61.72;54.88;72.87;;
74531;Laerm;63010;55.668;37.878;2022-11-15T14:23:24;60.16;54.15;72.10;;
74531;Laerm;63010;55.668;37.878;2022-11-15T14:25:57;58.30;54.02;65.88;;
74531;Laerm;63010;55.668;37.878;2022-11-15T14:30:50;58.72;54.01;64.38;;
74531;Laerm;63010;55.668;37.878;2022-11-15T14:33:23;58.66;53.75;68.93;;
74531;Laerm;63010;55.668;37.878;2022-11-15T14:35:52;58.29;53.02;64.89;;
74531;Laerm;63010;55.668;37.878;2022-11-15T14:38:18;58.61;53.90;67.41;;
74531;Laerm;63010;55.668;37.878;2022-11-15T14:40:44;58.65;54.25;64.82;;
74531;Laerm;63010;55.668;37.878;2022-11-15T14:43:13;58.01;52.94;65.64;;
74531;Laerm;63010;55.668;37.878;2022-11-15T14:45:39;59.26;52.37;69.41;;
74531;Laerm;63010;55.668;37.878;2022-11-15T14:48:04;60.15;54.50;66.82;;
74531;Laerm;63010;55.668;37.878;2022-11-15T14:50:31;58.24;53.96;65.99;;
74531;Laerm;63010;55.668;37.878;2022-11-15T14:52:58;57.61;53.85;66.51;;
74531;Laerm;63010;55.668;37.878;2022-11-15T14:55:26;57.66;51.97;64.34;;
74531;Laerm;63010;55.668;37.878;2022-11-15T14:57:54;57.04;53.63;63.20;;
74531;Laerm;63010;55.668;37.878;2022-11-15T15:02:47;58.57;53.63;66.24;;
74531;Laerm;63010;55.668;37.878;2022-11-15T15:05:15;58.77;54.05;70.70;;
74531;Laerm;63010;55.668;37.878;2022-11-15T15:07:41;58.07;53.27;66.82;;
74531;Laerm;63010;55.668;37.878;2022-11-15T15:10:07;59.35;53.75;71.06;;
74531;Laerm;63010;55.668;37.878;2022-11-15T15:12:33;59.65;53.78;68.85;;
74531;Laerm;63010;55.668;37.878;2022-11-15T15:14:58;59.43;52.22;68.27;;
74531;Laerm;63010;55.668;37.878;2022-11-15T15:17:24;57.89;52.54;68.61;;
74531;Laerm;63010;55.668;37.878;2022-11-15T15:19:50;57.67;52.08;65.88;;
74531;Laerm;63010;55.668;37.878;2022-11-15T15:22:18;57.54;53.16;64.29;;
74531;Laerm;63010;55.668;37.878;2022-11-15T15:24:45;58.17;53.64;68.05;;
74531;Laerm;63010;55.668;37.878;2022-11-15T15:27:12;57.96;53.98;72.87;;